PWSweather.com
Personal Weather Stations
Station Observations
KNHRINDG3
Converse Meadow Pond, Rindge, NH 03461

Converse Meadow PondRindge, NH 03461

Lat: 42.74, Lon: -71.98

Elevation: 1060

Station Type: Davis Vantage Pro 2

http://nhwoodworker.com/weather/index.php

Latest ConditionsUpdated 5:20:01 AM EST Sunday, Feb 7, 2016
Currently Today's Max Today's Min Today's Average
Temperature 14.5°F-9.7°C 20.6°F-6.3°C 14.5°F-9.7°C 18.1°F-7.7°C
Dew Point 13.1°F-10.5°C 19.2°F-7.1°C 12.9°F-10.6°C 16.6°F-8.6°C
Winds Calm Calm Calm SWCalm SW - Calm Calm
Wind Gusts -- 3.5 mph5.6 kmh - -
Humidity 94% 95% 93% 94%
Pressure 30.16 in1021.3 mb 30.20 in1022.7 mb 30.16 in1021.3 mb -
Hour Temp Dew Point Humidity Winds Wind Gusts Pressure Precip Precip Rate Daily Precip Total
05:20 AM 14.5°F-9.7°C 13.1°F-10.5°C 94% Calm Calm -- 30.16 in1021.3 mb - 0.00 in0.0 mm 0.00 in0.0 mm
05:10 AM 14.5°F-9.7°C 12.9°F-10.6°C 93% Calm Calm -- 30.16 in1021.3 mb - 0.00 in0.0 mm 0.00 in0.0 mm
05:00 AM 14.8°F-9.6°C 13.1°F-10.5°C 93% Calm Calm -- 30.16 in1021.3 mb - 0.00 in0.0 mm 0.00 in0.0 mm
04:50 AM 15.0°F-9.4°C 13.6°F-10.2°C 94% Calm Calm -- 30.16 in1021.3 mb - 0.00 in0.0 mm 0.00 in0.0 mm
04:40 AM 15.2°F-9.3°C 13.8°F-10.1°C 94% Calm Calm -- 30.17 in1021.7 mb - 0.00 in0.0 mm 0.00 in0.0 mm
04:30 AM 15.4°F-9.2°C 14.0°F-10.0°C 94% Calm Calm -- 30.17 in1021.7 mb - 0.00 in0.0 mm 0.00 in0.0 mm
04:20 AM 15.5°F-9.2°C 13.8°F-10.1°C 93% Calm Calm -- 30.17 in1021.7 mb - 0.00 in0.0 mm 0.00 in0.0 mm
04:10 AM 15.6°F-9.1°C 14.0°F-10.0°C 93% Calm Calm -- 30.17 in1021.7 mb - 0.00 in0.0 mm 0.00 in0.0 mm
04:00 AM 15.9°F-8.9°C 14.2°F-9.9°C 93% Calm Calm -- 30.17 in1021.7 mb - 0.00 in0.0 mm 0.00 in0.0 mm
03:50 AM 16.3°F-8.7°C 14.6°F-9.7°C 93% Calm Calm -- 30.17 in1021.7 mb - 0.00 in0.0 mm 0.00 in0.0 mm
03:40 AM 16.7°F-8.5°C 15.1°F-9.4°C 93% Calm Calm -- 30.16 in1021.3 mb - 0.00 in0.0 mm 0.00 in0.0 mm
03:30 AM 17.1°F-8.3°C 15.7°F-9.1°C 94% Calm Calm -- 30.16 in1021.3 mb - 0.00 in0.0 mm 0.00 in0.0 mm
03:20 AM 17.3°F-8.2°C 15.9°F-8.9°C 94% Calm Calm -- 30.16 in1021.3 mb - 0.00 in0.0 mm 0.00 in0.0 mm
03:10 AM 17.7°F-7.9°C 16.3°F-8.7°C 94% Calm Calm -- 30.16 in1021.3 mb - 0.00 in0.0 mm 0.00 in0.0 mm
03:00 AM 17.9°F-7.8°C 16.5°F-8.6°C 94% Calm Calm -- 30.16 in1021.3 mb - 0.00 in0.0 mm 0.00 in0.0 mm
02:50 AM 18.2°F-7.7°C 16.8°F-8.4°C 94% Calm Calm -- 30.16 in1021.3 mb - 0.00 in0.0 mm 0.00 in0.0 mm
02:40 AM 18.6°F-7.4°C 17.2°F-8.2°C 94% Calm Calm -- 30.16 in1021.3 mb - 0.00 in0.0 mm 0.00 in0.0 mm
02:30 AM 19.1°F-7.2°C 17.7°F-7.9°C 94% Calm Calm -- 30.16 in1021.3 mb - 0.00 in0.0 mm 0.00 in0.0 mm
02:20 AM 19.4°F-7.0°C 18.0°F-7.8°C 94% Calm Calm -- 30.16 in1021.3 mb - 0.00 in0.0 mm 0.00 in0.0 mm
02:10 AM 19.7°F-6.8°C 18.3°F-7.6°C 94% Calm Calm -- 30.16 in1021.3 mb - 0.00 in0.0 mm 0.00 in0.0 mm
02:00 AM 20.0°F-6.7°C 18.5°F-7.5°C 94% Calm Calm -- 30.17 in1021.7 mb - 0.00 in0.0 mm 0.00 in0.0 mm
01:50 AM 20.2°F-6.6°C 18.8°F-7.3°C 94% Calm Calm -- 30.17 in1021.7 mb - 0.00 in0.0 mm 0.00 in0.0 mm
01:40 AM 20.3°F-6.5°C 18.9°F-7.3°C 94% Calm Calm -- 30.18 in1022.0 mb - 0.00 in0.0 mm 0.00 in0.0 mm
01:30 AM 20.4°F-6.4°C 18.9°F-7.3°C 94% Calm Calm -- 30.17 in1021.7 mb - 0.00 in0.0 mm 0.00 in0.0 mm
01:20 AM 20.4°F-6.4°C 19.2°F-7.1°C 95% Calm Calm -- 30.17 in1021.7 mb - 0.00 in0.0 mm 0.00 in0.0 mm
01:10 AM 20.5°F-6.4°C 19.2°F-7.1°C 95% Calm Calm -- 30.18 in1022.0 mb - 0.00 in0.0 mm 0.00 in0.0 mm
01:00 AM 20.2°F-6.6°C 19.0°F-7.2°C 95% Calm Calm -- 30.18 in1022.0 mb - 0.00 in0.0 mm 0.00 in0.0 mm
12:50 AM 19.9°F-6.7°C 18.4°F-7.6°C 94% Calm Calm 3.5 mph5.6 kmh 30.18 in1022.0 mb - 0.00 in0.0 mm 0.00 in0.0 mm
12:40 AM 19.8°F-6.8°C 18.4°F-7.6°C 94% Calm Calm -- 30.19 in1022.4 mb - 0.00 in0.0 mm 0.00 in0.0 mm
12:30 AM 19.9°F-6.7°C 18.5°F-7.5°C 94% Calm Calm -- 30.19 in1022.4 mb - 0.00 in0.0 mm 0.00 in0.0 mm
12:20 AM 20.0°F-6.7°C 18.6°F-7.4°C 94% Calm Calm -- 30.20 in1022.7 mb - 0.00 in0.0 mm 0.00 in0.0 mm
12:10 AM 20.2°F-6.6°C 18.5°F-7.5°C 93% Calm Calm -- 30.20 in1022.7 mb - 0.00 in0.0 mm 0.00 in0.0 mm
12:00 AM 20.6°F-6.3°C 19.2°F-7.1°C 94% Calm Calm -- 30.20 in1022.7 mb - 0.00 in0.0 mm 0.00 in0.0 mm